createdAt,value
2017-09-08T00:01:42.521Z,6.03
2017-09-08T00:04:11.720Z,5.27
2017-09-08T00:06:39.280Z,5.30
2017-09-08T00:09:07.583Z,5.80
2017-09-08T00:11:35.140Z,6.17
2017-09-08T00:14:09.928Z,5.27
2017-09-08T00:16:37.485Z,5.00
2017-09-08T00:19:05.050Z,6.23
2017-09-08T00:21:33.327Z,5.37
2017-09-08T00:24:01.683Z,5.43
2017-09-08T00:26:29.214Z,5.90
2017-09-08T00:28:56.739Z,6.60
2017-09-08T00:31:24.329Z,5.70
2017-09-08T00:33:51.835Z,5.33
2017-09-08T00:36:19.346Z,5.45
2017-09-08T00:38:46.875Z,7.83
2017-09-08T00:41:15.976Z,6.15
2017-09-08T00:43:43.523Z,5.18
2017-09-08T00:46:11.065Z,5.50
2017-09-08T00:48:38.623Z,6.37
2017-09-08T00:51:06.132Z,5.30
2017-09-08T00:53:34.608Z,5.47
2017-09-08T00:56:02.122Z,5.73
2017-09-08T00:58:29.683Z,6.73
2017-09-08T01:00:57.191Z,6.03
2017-09-08T01:03:24.700Z,7.80
2017-09-08T01:05:52.205Z,6.07
2017-09-08T01:08:19.762Z,5.13
2017-09-08T01:10:48.040Z,5.10
2017-09-08T01:13:15.568Z,5.53
2017-09-08T01:15:43.148Z,5.33
2017-09-08T01:18:10.788Z,6.17
2017-09-08T01:20:38.296Z,5.70
2017-09-08T01:23:05.812Z,6.05
2017-09-08T01:25:33.349Z,6.28
2017-09-08T01:28:01.816Z,5.85
2017-09-08T01:30:36.695Z,6.23
2017-09-08T01:33:04.216Z,5.47
2017-09-08T01:35:33.299Z,5.72
2017-09-08T01:38:00.816Z,5.47
2017-09-08T01:40:29.131Z,6.83
2017-09-08T01:42:57.237Z,6.47
2017-09-08T01:45:25.223Z,6.87
2017-09-08T01:47:52.748Z,6.20
2017-09-08T01:50:20.302Z,5.93
2017-09-08T01:52:47.844Z,5.57
2017-09-08T01:55:16.291Z,6.20
2017-09-08T01:57:43.844Z,6.10
2017-09-08T02:00:12.976Z,5.77
2017-09-08T02:02:41.120Z,4.87
2017-09-08T02:05:08.643Z,5.33
2017-09-08T02:07:36.191Z,5.50
2017-09-08T02:10:03.711Z,5.68
2017-09-08T02:12:31.223Z,6.12
2017-09-08T02:14:59.692Z,6.80
2017-09-08T02:17:27.198Z,5.23
2017-09-08T02:19:54.827Z,5.05
2017-09-08T02:22:22.370Z,5.37
2017-09-08T02:24:49.880Z,5.57
2017-09-08T02:27:18.259Z,5.62
2017-09-08T02:29:46.551Z,6.00
2017-09-08T02:32:15.828Z,6.83
2017-09-08T02:34:44.267Z,5.27
2017-09-08T02:37:11.777Z,6.03
2017-09-08T02:39:39.289Z,4.83
2017-09-08T02:42:06.809Z,6.37
2017-09-08T02:44:34.383Z,5.57
2017-09-08T02:47:01.900Z,8.57
2017-09-08T02:49:29.472Z,6.27
2017-09-08T02:51:57.759Z,5.20
2017-09-08T02:54:25.267Z,5.43
2017-09-08T02:56:52.774Z,6.23
2017-09-08T02:59:20.283Z,6.50
2017-09-08T03:01:51.403Z,5.50
2017-09-08T03:04:18.944Z,5.53
2017-09-08T03:06:47.947Z,5.93
2017-09-08T03:09:16.176Z,5.20
2017-09-08T03:11:43.740Z,5.60
2017-09-08T03:14:12.212Z,6.10
2017-09-08T03:16:39.720Z,4.87
2017-09-08T03:19:08.033Z,4.80
2017-09-08T03:21:35.598Z,5.90
2017-09-08T03:24:03.127Z,5.30
2017-09-08T03:26:31.903Z,5.50
2017-09-08T03:28:59.453Z,5.77
2017-09-08T03:31:26.966Z,5.60
2017-09-08T03:36:28.715Z,4.70
2017-09-08T03:38:57.392Z,4.90
2017-09-08T03:41:24.901Z,5.03
2017-09-08T03:43:52.436Z,6.65
2017-09-08T03:46:19.983Z,5.70
2017-09-08T03:48:48.309Z,5.30
2017-09-08T03:51:15.895Z,5.27
2017-09-08T03:53:43.416Z,5.43
2017-09-08T03:56:10.962Z,5.33
2017-09-08T03:58:39.960Z,5.15
2017-09-08T04:01:07.474Z,5.57
2017-09-08T04:03:35.799Z,5.57
2017-09-08T04:06:03.525Z,4.75
2017-09-08T04:08:31.086Z,5.27
2017-09-08T04:10:59.427Z,4.78
2017-09-08T04:13:27.037Z,5.20
2017-09-08T04:15:54.572Z,7.87
2017-09-08T04:18:22.078Z,4.83
2017-09-08T04:20:49.588Z,4.23
2017-09-08T04:23:17.159Z,6.07
2017-09-08T04:25:44.724Z,5.47
2017-09-08T04:28:12.274Z,4.90
2017-09-08T04:30:40.337Z,5.00
2017-09-08T04:33:07.860Z,5.63
2017-09-08T04:35:35.369Z,5.30
2017-09-08T04:38:03.883Z,4.60
2017-09-08T04:40:32.238Z,4.60
2017-09-08T04:42:59.809Z,4.68
2017-09-08T04:45:28.088Z,5.12
2017-09-08T04:47:56.136Z,6.17
2017-09-08T04:50:23.691Z,4.67
2017-09-08T04:52:51.662Z,4.68
2017-09-08T04:55:19.339Z,5.47
2017-09-08T04:57:46.947Z,5.18
2017-09-08T05:00:15.042Z,5.20
2017-09-08T05:02:42.598Z,5.60
2017-09-08T05:05:11.479Z,5.57
2017-09-08T05:07:38.999Z,6.78
2017-09-08T05:10:06.972Z,6.40
2017-09-08T05:12:34.503Z,5.83
2017-09-08T05:15:02.014Z,4.60
2017-09-08T05:17:29.823Z,6.10
2017-09-08T05:20:00.243Z,4.53
2017-09-08T05:22:27.891Z,5.03
2017-09-08T05:24:55.476Z,5.90
2017-09-08T05:27:23.015Z,6.23
2017-09-08T05:29:50.612Z,5.57
2017-09-08T05:32:18.928Z,5.85
2017-09-08T05:34:46.439Z,5.73
2017-09-08T05:37:13.962Z,5.77
2017-09-08T05:39:41.473Z,5.00
2017-09-08T05:42:09.802Z,5.20
2017-09-08T05:44:37.328Z,3.83
2017-09-08T05:47:05.636Z,6.13
2017-09-08T05:49:33.182Z,6.10
2017-09-08T05:52:00.700Z,3.90
2017-09-08T05:54:28.246Z,5.05
2017-09-08T05:56:55.750Z,5.20
2017-09-08T05:59:23.309Z,4.00
2017-09-08T06:01:51.760Z,5.77
2017-09-08T06:04:19.304Z,4.47
2017-09-08T06:06:47.582Z,4.47
2017-09-08T06:09:15.944Z,4.68
2017-09-08T06:11:43.692Z,5.30
2017-09-08T06:14:11.196Z,5.40
2017-09-08T06:16:38.755Z,4.60
2017-09-08T06:19:06.280Z,4.47
2017-09-08T06:21:33.799Z,4.20
2017-09-08T06:24:02.067Z,5.37
2017-09-08T06:26:30.200Z,5.65
2017-09-08T06:28:57.717Z,5.87
2017-09-08T06:31:25.988Z,5.68
2017-09-08T06:33:53.546Z,5.00
2017-09-08T06:36:21.824Z,4.80
2017-09-08T06:38:49.573Z,5.35
2017-09-08T06:41:17.645Z,5.67
2017-09-08T06:43:45.203Z,5.30
2017-09-08T06:46:12.757Z,4.50
2017-09-08T06:48:40.320Z,5.47
2017-09-08T06:51:08.808Z,4.20
2017-09-08T06:53:36.377Z,5.10
2017-09-08T06:56:03.970Z,5.00
2017-09-08T06:58:31.513Z,5.00
2017-09-08T07:00:59.117Z,4.65
2017-09-08T07:03:26.627Z,5.05
2017-09-08T07:05:54.132Z,5.17
2017-09-08T07:08:22.481Z,4.80
2017-09-08T07:10:50.834Z,4.57
2017-09-08T07:13:18.409Z,5.03
2017-09-08T07:15:47.623Z,5.10
2017-09-08T07:18:15.140Z,4.77
2017-09-08T07:20:42.663Z,5.40
2017-09-08T07:23:10.209Z,4.67
2017-09-08T07:25:37.720Z,4.37
2017-09-08T07:28:06.218Z,5.00
2017-09-08T07:30:34.511Z,5.47
2017-09-08T07:33:02.144Z,3.93
2017-09-08T07:35:30.655Z,5.15
2017-09-08T07:37:58.324Z,3.90
2017-09-08T07:40:25.890Z,4.37
2017-09-08T07:42:53.418Z,3.60
2017-09-08T07:45:21.799Z,2.60
2017-09-08T07:47:51.129Z,5.20
2017-09-08T07:50:19.490Z,3.70
2017-09-08T07:52:47.865Z,4.55
2017-09-08T07:55:15.494Z,3.97
2017-09-08T07:57:43.098Z,3.13
2017-09-08T08:00:11.261Z,3.63
2017-09-08T08:02:40.154Z,4.00
2017-09-08T08:05:08.438Z,3.67
2017-09-08T08:07:36.571Z,3.33
2017-09-08T08:10:04.124Z,3.70
2017-09-08T08:12:32.192Z,3.60
2017-09-08T08:15:00.148Z,3.53
2017-09-08T08:17:27.651Z,4.00
2017-09-08T08:19:55.161Z,2.95
2017-09-08T08:22:24.007Z,3.15
2017-09-08T08:24:51.532Z,2.60
2017-09-08T08:27:19.205Z,3.13
2017-09-08T08:29:46.747Z,3.67
2017-09-08T08:32:14.261Z,3.13
2017-09-08T08:34:42.500Z,3.60
2017-09-08T08:37:10.004Z,2.93
2017-09-08T08:39:37.523Z,3.87
2017-09-08T08:42:05.032Z,3.00
2017-09-08T08:44:33.841Z,3.62
2017-09-08T08:47:01.469Z,4.30
2017-09-08T08:49:29.039Z,3.10
2017-09-08T08:51:57.344Z,2.97
2017-09-08T08:54:25.939Z,3.58
2017-09-08T08:56:53.612Z,3.20
2017-09-08T08:59:21.174Z,3.15
2017-09-08T09:01:48.681Z,3.30
2017-09-08T09:04:16.471Z,4.23
2017-09-08T09:06:44.015Z,3.70
2017-09-08T09:09:11.564Z,3.73
2017-09-08T09:11:40.556Z,2.80
2017-09-08T09:14:08.961Z,3.50
2017-09-08T09:16:37.422Z,3.70
2017-09-08T09:19:05.862Z,2.50
2017-09-08T09:21:33.404Z,4.07
2017-09-08T09:24:00.911Z,3.60
2017-09-08T09:26:29.144Z,2.70
2017-09-08T09:28:56.663Z,4.80
2017-09-08T09:31:24.974Z,3.53
2017-09-08T09:33:52.589Z,3.83
2017-09-08T09:36:20.113Z,3.85
2017-09-08T09:38:47.623Z,3.37
2017-09-08T09:41:15.123Z,4.10
2017-09-08T09:43:43.044Z,2.70
2017-09-08T09:46:10.552Z,3.50
2017-09-08T09:48:38.079Z,3.47
2017-09-08T09:51:05.599Z,4.00
2017-09-08T09:53:37.215Z,3.60
2017-09-08T09:56:04.720Z,2.97
2017-09-08T09:58:32.619Z,3.62
2017-09-08T10:01:00.145Z,3.03
2017-09-08T10:03:27.672Z,3.80
2017-09-08T10:05:55.184Z,3.97
2017-09-08T10:08:23.456Z,4.00
2017-09-08T10:10:55.344Z,4.15
2017-09-08T10:13:22.870Z,4.23
2017-09-08T10:15:50.405Z,3.37
2017-09-08T10:18:17.919Z,3.97
2017-09-08T10:20:47.133Z,4.30
2017-09-08T10:23:14.769Z,3.42
2017-09-08T10:25:43.179Z,3.40
2017-09-08T10:28:11.207Z,5.00
2017-09-08T10:30:39.799Z,3.50
2017-09-08T10:33:07.321Z,3.45
2017-09-08T10:35:35.634Z,4.10
2017-09-08T10:38:03.448Z,3.97
2017-09-08T10:40:30.958Z,4.87
2017-09-08T10:42:59.238Z,4.15
2017-09-08T10:45:26.746Z,3.37
2017-09-08T10:47:55.393Z,3.95
2017-09-08T10:50:22.899Z,5.22
2017-09-08T10:52:50.443Z,4.03
2017-09-08T10:55:17.944Z,3.53
2017-09-08T10:57:45.444Z,4.10
2017-09-08T11:00:13.927Z,4.40
2017-09-08T11:02:41.877Z,3.70
2017-09-08T11:05:09.384Z,4.22
2017-09-08T11:07:36.945Z,5.15
2017-09-08T11:10:04.468Z,4.60
2017-09-08T11:12:33.699Z,4.03
2017-09-08T11:15:01.221Z,4.65
2017-09-08T11:17:29.552Z,3.87
2017-09-08T11:19:58.179Z,4.60
2017-09-08T11:22:26.456Z,4.80
2017-09-08T11:24:57.117Z,3.80
2017-09-08T11:27:24.636Z,4.22
2017-09-08T11:29:53.609Z,3.83
2017-09-08T11:35:27.813Z,4.57
2017-09-08T11:37:55.316Z,4.00
2017-09-08T11:40:23.292Z,3.80
2017-09-08T11:42:51.718Z,4.80
2017-09-08T11:45:19.263Z,5.03
2017-09-08T11:47:48.494Z,4.10
2017-09-08T11:50:16.033Z,4.17
2017-09-08T11:52:44.516Z,4.80
2017-09-08T11:55:12.085Z,5.03
2017-09-08T11:57:39.840Z,4.00
2017-09-08T12:00:07.543Z,4.28
2017-09-08T12:02:35.100Z,4.33
2017-09-08T12:05:02.616Z,5.00
2017-09-08T12:07:30.909Z,4.60
2017-09-08T12:09:58.452Z,4.87
2017-09-08T12:12:26.456Z,4.57
2017-09-08T12:14:53.975Z,5.13
2017-09-08T12:17:22.312Z,4.80
2017-09-08T12:19:49.816Z,4.65
2017-09-08T12:22:17.311Z,4.70
2017-09-08T12:24:46.716Z,5.10
2017-09-08T12:27:14.233Z,5.63
2017-09-08T12:29:41.896Z,4.37
2017-09-08T12:32:10.176Z,5.78
2017-09-08T12:34:37.696Z,5.37
2017-09-08T12:37:05.244Z,4.95
2017-09-08T12:39:33.520Z,4.83
2017-09-08T12:42:04.586Z,4.60
2017-09-08T12:44:32.120Z,4.60
2017-09-08T12:46:59.755Z,4.80
2017-09-08T12:49:27.268Z,4.63
2017-09-08T12:51:55.275Z,4.70
2017-09-08T12:54:23.056Z,5.80
2017-09-08T12:56:50.568Z,5.80
2017-09-08T12:59:19.255Z,5.10
2017-09-08T13:01:47.229Z,5.20
2017-09-08T13:04:15.601Z,5.53
2017-09-08T13:06:43.343Z,6.13
2017-09-08T13:09:10.853Z,5.80
2017-09-08T13:11:41.722Z,5.40
2017-09-08T13:14:09.276Z,4.83
2017-09-08T13:16:36.787Z,6.70
2017-09-08T13:19:04.287Z,5.53
2017-09-08T13:21:32.727Z,6.00
2017-09-08T13:24:00.245Z,5.90
2017-09-08T13:26:27.951Z,5.47
2017-09-08T13:28:55.848Z,7.70
2017-09-08T13:31:23.348Z,5.83
2017-09-08T13:33:50.966Z,5.53
2017-09-08T13:36:18.536Z,5.33
2017-09-08T13:38:46.735Z,5.40
2017-09-08T13:41:14.256Z,7.20
2017-09-08T13:43:42.060Z,6.23
2017-09-08T13:46:09.579Z,6.33
2017-09-08T13:48:37.839Z,5.83
2017-09-08T13:51:05.608Z,6.00
2017-09-08T13:53:33.169Z,6.20
2017-09-08T13:56:00.675Z,6.70
2017-09-08T13:58:28.199Z,5.65
2017-09-08T14:00:55.859Z,5.80
2017-09-08T14:03:25.084Z,5.40
2017-09-08T14:05:52.636Z,6.60
2017-09-08T14:08:20.698Z,6.15
2017-09-08T14:10:48.235Z,6.90
2017-09-08T14:13:15.746Z,6.77
2017-09-08T14:15:44.824Z,6.00
2017-09-08T14:18:12.378Z,6.27
2017-09-08T14:20:40.671Z,5.90
2017-09-08T14:23:08.674Z,6.70
2017-09-08T14:25:36.196Z,6.65
2017-09-08T14:28:08.296Z,6.47
2017-09-08T14:30:35.838Z,5.80
2017-09-08T14:33:03.447Z,6.33
2017-09-08T14:35:31.344Z,6.57
2017-09-08T14:37:59.615Z,6.07
2017-09-08T14:40:27.152Z,7.47
2017-09-08T14:42:54.704Z,6.27
2017-09-08T14:45:23.776Z,6.95
2017-09-08T14:47:51.427Z,6.03
2017-09-08T14:50:18.944Z,6.40
2017-09-08T14:52:48.199Z,6.85
2017-09-08T14:55:15.727Z,7.10
2017-09-08T14:57:44.056Z,6.30
2017-09-08T15:00:12.319Z,7.07
2017-09-08T15:02:39.863Z,6.43
2017-09-08T15:07:57.894Z,7.03
2017-09-08T15:10:25.432Z,6.28
2017-09-08T15:12:53.235Z,7.07
2017-09-08T15:15:20.756Z,6.22
2017-09-08T15:17:48.371Z,6.30
2017-09-08T15:20:15.871Z,7.60
2017-09-08T15:22:44.917Z,6.80
2017-09-08T15:25:12.414Z,6.30
2017-09-08T15:27:39.955Z,7.50
2017-09-08T15:30:10.355Z,6.80
2017-09-08T15:32:41.823Z,6.23
2017-09-08T15:35:10.466Z,5.90
2017-09-08T15:37:38.026Z,5.70
2017-09-08T15:40:07.045Z,6.43
2017-09-08T15:42:34.607Z,7.10
2017-09-08T15:45:04.930Z,7.23
2017-09-08T15:47:32.483Z,6.25
2017-09-08T15:50:00.755Z,6.22
2017-09-08T15:52:29.882Z,6.28
2017-09-08T15:54:57.799Z,7.03
2017-09-08T15:57:25.619Z,6.93
2017-09-08T15:59:57.556Z,6.95
2017-09-08T16:02:25.071Z,7.37
2017-09-08T16:04:52.643Z,7.63
2017-09-08T16:07:20.169Z,6.80
2017-09-08T16:09:47.735Z,7.33
2017-09-08T16:12:15.292Z,6.50
2017-09-08T16:14:43.273Z,6.70
2017-09-08T16:17:10.787Z,7.03
2017-09-08T16:19:38.498Z,6.53
2017-09-08T16:22:06.044Z,6.87
2017-09-08T16:24:33.555Z,6.37
2017-09-08T16:27:02.801Z,6.20
2017-09-08T16:29:30.298Z,7.35
2017-09-08T16:31:57.855Z,8.00
2017-09-08T16:34:25.369Z,7.00
2017-09-08T16:36:52.882Z,6.23
2017-09-08T16:39:20.380Z,7.00
2017-09-08T16:41:48.103Z,6.57
2017-09-08T16:44:16.257Z,5.80
2017-09-08T16:46:43.776Z,6.43
2017-09-08T16:49:11.272Z,7.40
2017-09-08T16:51:38.786Z,6.43
2017-09-08T16:54:06.378Z,7.25
2017-09-08T16:56:33.932Z,8.67
2017-09-08T16:59:01.440Z,7.40
2017-09-08T17:01:29.684Z,7.18
2017-09-08T17:03:57.203Z,7.75
2017-09-08T17:06:24.890Z,7.13
2017-09-08T17:08:52.453Z,7.80
2017-09-08T17:11:20.116Z,8.20
2017-09-08T17:13:47.642Z,7.20
2017-09-08T17:16:15.916Z,8.17
2017-09-08T17:18:43.481Z,7.40
2017-09-08T17:21:11.763Z,7.00
2017-09-08T17:23:39.259Z,7.20
2017-09-08T17:26:06.986Z,7.65
2017-09-08T17:28:34.537Z,7.43
2017-09-08T17:31:05.626Z,7.12
2017-09-08T17:33:33.160Z,7.37
2017-09-08T17:36:00.667Z,8.17
2017-09-08T17:38:28.300Z,7.97
2017-09-08T17:40:55.846Z,8.10
2017-09-08T17:43:23.608Z,8.73
2017-09-08T17:45:51.795Z,8.60
2017-09-08T17:48:19.443Z,7.70
2017-09-08T17:50:46.951Z,8.77
2017-09-08T17:53:14.447Z,8.17
2017-09-08T17:55:41.960Z,7.75
2017-09-08T17:58:09.470Z,8.63
2017-09-08T18:00:37.814Z,8.65
2017-09-08T18:03:05.353Z,8.10
2017-09-08T18:05:32.875Z,8.07
2017-09-08T18:08:00.387Z,8.10
2017-09-08T18:10:27.924Z,8.00
2017-09-08T18:12:55.487Z,7.70
2017-09-08T18:15:23.007Z,8.10
2017-09-08T18:17:50.535Z,8.55
2017-09-08T18:20:18.041Z,8.65
2017-09-08T18:22:45.584Z,7.60
2017-09-08T18:25:14.256Z,8.45
2017-09-08T18:27:41.811Z,8.20
2017-09-08T18:30:09.402Z,8.43
2017-09-08T18:32:38.623Z,8.47
2017-09-08T18:35:06.137Z,7.60
2017-09-08T18:37:33.716Z,10.73
2017-09-08T18:40:01.263Z,9.63
2017-09-08T18:42:29.564Z,10.43
2017-09-08T18:44:57.399Z,8.30
2017-09-08T18:47:25.674Z,8.90
2017-09-08T18:49:53.181Z,9.00
2017-09-08T18:52:21.639Z,11.30
2017-09-08T18:54:49.158Z,10.25
2017-09-08T18:57:16.703Z,9.50
2017-09-08T18:59:45.191Z,8.17
2017-09-08T19:02:16.183Z,9.03
2017-09-08T19:04:43.689Z,9.27
2017-09-08T19:07:11.200Z,10.02
2017-09-08T19:09:38.709Z,10.60
2017-09-08T19:12:06.771Z,10.30
2017-09-08T19:14:34.304Z,9.57
2017-09-08T19:17:01.855Z,9.60
2017-09-08T19:19:29.463Z,9.80
2017-09-08T19:21:57.520Z,9.63
2017-09-08T19:24:25.138Z,9.23
2017-09-08T19:26:52.648Z,9.53
2017-09-08T19:29:20.195Z,9.20
2017-09-08T19:31:48.264Z,9.17
2017-09-08T19:34:15.865Z,10.13
2017-09-08T19:36:44.152Z,10.80
2017-09-08T19:39:11.725Z,10.00
2017-09-08T19:41:40.025Z,9.80
2017-09-08T19:44:07.581Z,9.00
2017-09-08T19:46:35.180Z,9.70
2017-09-08T19:49:03.628Z,8.43
2017-09-08T19:51:31.201Z,11.27
2017-09-08T19:53:58.718Z,9.32
2017-09-08T19:56:26.261Z,9.27
2017-09-08T19:58:53.785Z,9.45
2017-09-08T20:01:22.272Z,9.40
2017-09-08T20:03:56.957Z,10.70
2017-09-08T20:06:25.272Z,10.80
2017-09-08T20:11:26.771Z,9.83
2017-09-08T20:13:54.866Z,9.90
2017-09-08T20:16:22.856Z,11.20
2017-09-08T20:18:51.199Z,9.27
2017-09-08T20:21:18.709Z,10.53
2017-09-08T20:23:46.268Z,8.25
2017-09-08T20:26:13.794Z,9.38
2017-09-08T20:28:41.319Z,7.90
2017-09-08T20:31:08.896Z,10.27
2017-09-08T20:33:37.204Z,9.43
2017-09-08T20:36:05.478Z,10.00
2017-09-08T20:38:33.535Z,8.60
2017-09-08T20:41:01.097Z,9.50
2017-09-08T20:43:28.666Z,9.10
2017-09-08T20:45:56.663Z,10.95
2017-09-08T20:48:24.335Z,8.93
2017-09-08T20:50:51.855Z,9.17
2017-09-08T20:53:19.679Z,10.67
2017-09-08T20:55:47.203Z,9.17
2017-09-08T20:58:15.484Z,9.37
2017-09-08T21:00:43.762Z,10.07
2017-09-08T21:03:11.321Z,10.60
2017-09-08T21:05:38.883Z,8.73
2017-09-08T21:08:06.403Z,11.18
2017-09-08T21:10:34.875Z,9.85
2017-09-08T21:13:02.414Z,8.67
2017-09-08T21:15:29.970Z,9.80
2017-09-08T21:17:57.509Z,9.80
2017-09-08T21:20:29.223Z,9.50
2017-09-08T21:22:56.771Z,10.40
2017-09-08T21:25:26.031Z,10.25
2017-09-08T21:27:54.346Z,10.07
2017-09-08T21:30:21.900Z,9.48
2017-09-08T21:32:49.429Z,10.23
2017-09-08T21:35:21.768Z,8.73
2017-09-08T21:37:50.084Z,8.75
2017-09-08T21:40:17.600Z,9.67
2017-09-08T21:42:45.111Z,9.70
2017-09-08T21:45:12.632Z,9.30
2017-09-08T21:47:40.178Z,8.73
2017-09-08T21:50:07.748Z,9.77
2017-09-08T21:52:35.254Z,8.80
2017-09-08T21:55:03.176Z,10.32
2017-09-08T21:57:30.676Z,9.47
2017-09-08T21:59:58.193Z,9.98
2017-09-08T22:02:25.834Z,9.17
2017-09-08T22:04:53.387Z,9.67
2017-09-08T22:07:20.918Z,8.87
2017-09-08T22:09:48.431Z,9.85
2017-09-08T22:12:16.599Z,9.73
2017-09-08T22:14:44.185Z,10.52
2017-09-08T22:17:12.460Z,9.07
2017-09-08T22:19:40.007Z,9.83
2017-09-08T22:22:07.506Z,9.23
2017-09-08T22:24:35.955Z,8.70
2017-09-08T22:27:04.280Z,9.50
2017-09-08T22:29:31.823Z,9.07
2017-09-08T22:32:00.247Z,9.80
2017-09-08T22:34:28.370Z,8.68
2017-09-08T22:36:55.867Z,9.17
2017-09-08T22:39:23.446Z,10.30
2017-09-08T22:41:51.027Z,9.30
2017-09-08T22:44:18.543Z,10.38
2017-09-08T22:46:46.072Z,9.53
2017-09-08T22:49:14.980Z,9.30
2017-09-08T22:51:42.495Z,9.95
2017-09-08T22:54:10.035Z,9.37
2017-09-08T22:56:37.612Z,10.13
2017-09-08T22:59:05.155Z,9.37
2017-09-08T23:01:33.216Z,10.05
2017-09-08T23:04:00.773Z,9.20
2017-09-08T23:06:32.674Z,9.47
2017-09-08T23:09:00.181Z,10.60
2017-09-08T23:11:28.175Z,9.50
2017-09-08T23:13:55.683Z,8.80
2017-09-08T23:16:23.183Z,10.40
2017-09-08T23:18:50.691Z,10.20
2017-09-08T23:21:18.967Z,10.57
2017-09-08T23:23:46.981Z,9.68
2017-09-08T23:26:14.506Z,11.40
2017-09-08T23:28:42.014Z,10.53
2017-09-08T23:31:09.526Z,10.90
2017-09-08T23:33:37.804Z,9.95
2017-09-08T23:36:07.018Z,11.00
2017-09-08T23:38:35.541Z,10.40
2017-09-08T23:41:03.048Z,9.30
2017-09-08T23:43:31.011Z,9.75
2017-09-08T23:45:58.540Z,10.20
2017-09-08T23:48:26.047Z,10.67
2017-09-08T23:50:53.558Z,9.40
2017-09-08T23:53:21.071Z,8.73
2017-09-08T23:55:48.575Z,9.73
2017-09-08T23:58:16.086Z,10.67
